createdAt,value
2023-04-02T00:03:25.289Z,98748.03
2023-04-02T00:08:41.136Z,98739.00
2023-04-02T00:13:49.460Z,98739.75
2023-04-02T00:18:55.725Z,98742.28
2023-04-02T00:24:00.832Z,98745.03
2023-04-02T00:29:05.906Z,98745.66
2023-04-02T00:34:15.088Z,98750.22
2023-04-02T00:39:24.726Z,98750.69
2023-04-02T00:44:29.419Z,98757.13
2023-04-02T00:49:36.833Z,98767.84
2023-04-02T00:54:51.637Z,98770.78
2023-04-02T01:00:07.900Z,98768.31
2023-04-02T01:05:15.928Z,98763.84
2023-04-02T01:10:59.362Z,98770.59
2023-04-02T01:16:29.466Z,98767.19
2023-04-02T01:21:53.942Z,98771.75
2023-04-02T01:26:59.478Z,98772.88
2023-04-02T01:32:14.918Z,98791.19
2023-04-02T01:37:36.782Z,98769.66
2023-04-02T01:42:48.883Z,98770.28
2023-04-02T01:47:51.531Z,98773.09
2023-04-02T01:52:57.323Z,98762.00
2023-04-02T01:58:01.484Z,98764.66
2023-04-02T02:03:06.368Z,98764.28
2023-04-02T02:08:22.194Z,98764.19
2023-04-02T02:13:25.492Z,98762.47
2023-04-02T02:18:29.027Z,98772.69
2023-04-02T02:23:32.570Z,98757.25
2023-04-02T02:28:40.293Z,98760.28
2023-04-02T02:33:51.179Z,98767.44
2023-04-02T02:39:28.197Z,98774.75
2023-04-02T02:44:36.032Z,98796.63
2023-04-02T02:49:42.201Z,98778.66
2023-04-02T02:54:52.163Z,98786.06
2023-04-02T02:59:58.479Z,98788.59
2023-04-02T03:05:02.942Z,98780.59
2023-04-02T03:10:48.190Z,98782.88
2023-04-02T03:16:08.531Z,98791.91
2023-04-02T03:21:15.840Z,98794.84
2023-04-02T03:26:24.021Z,98798.81
2023-04-02T03:31:34.339Z,98802.47
2023-04-02T03:36:59.691Z,98805.56
2023-04-02T03:42:05.449Z,98807.13
2023-04-02T03:47:17.180Z,98809.22
2023-04-02T03:52:26.847Z,98820.25
2023-04-02T03:57:42.129Z,98810.03
2023-04-02T04:03:00.096Z,98814.03
2023-04-02T04:08:08.623Z,98832.84
2023-04-02T04:13:18.126Z,98816.88
2023-04-02T04:18:39.841Z,98811.53
2023-04-02T04:23:51.201Z,98812.91
2023-04-02T04:29:38.823Z,98809.63
2023-04-02T04:34:53.565Z,98810.25
2023-04-02T04:40:31.749Z,98816.38
2023-04-02T04:45:56.399Z,98823.75
2023-04-02T04:51:06.105Z,98826.41
2023-04-02T04:56:18.495Z,98815.41
2023-04-02T05:01:43.257Z,98859.53
2023-04-02T05:06:54.405Z,98848.94
2023-04-02T05:12:06.813Z,98844.47
2023-04-02T05:17:17.134Z,98841.38
2023-04-02T05:22:25.428Z,98844.38
2023-04-02T05:27:39.842Z,98838.41
2023-04-02T05:32:50.697Z,98852.66
2023-04-02T05:37:54.705Z,98849.53
2023-04-02T05:42:58.642Z,98856.06
2023-04-02T05:48:06.198Z,98865.56
2023-04-02T05:53:46.243Z,98870.00
2023-04-02T05:58:53.106Z,98873.78
2023-04-02T06:04:15.229Z,98860.81
2023-04-02T06:09:40.613Z,98877.81
2023-04-02T06:14:43.231Z,98863.09
2023-04-02T06:19:48.026Z,98869.75
2023-04-02T06:24:58.372Z,98875.72
2023-04-02T06:30:05.720Z,98877.34
2023-04-02T06:35:13.265Z,98872.97
2023-04-02T06:40:35.057Z,98859.97
2023-04-02T06:45:46.543Z,98855.13
2023-04-02T06:51:14.288Z,98859.16
2023-04-02T06:56:38.139Z,98878.59
2023-04-02T07:01:57.895Z,98882.44
2023-04-02T07:07:00.628Z,98879.69
2023-04-02T07:12:14.320Z,98880.47
2023-04-02T07:17:18.897Z,98882.03
2023-04-02T07:22:21.255Z,98880.50
2023-04-02T07:27:28.141Z,98880.25
2023-04-02T07:32:30.584Z,98895.66
2023-04-02T07:37:32.697Z,98933.53
2023-04-02T07:42:34.965Z,98906.88
2023-04-02T07:47:37.070Z,98889.88
2023-04-02T07:52:44.965Z,98906.53
2023-04-02T07:57:51.266Z,98908.81
2023-04-02T08:02:53.772Z,98904.97
2023-04-02T08:07:57.163Z,98906.56
2023-04-02T08:12:59.409Z,98924.00
2023-04-02T08:18:01.740Z,98920.44
2023-04-02T08:23:04.423Z,98916.91
2023-04-02T08:28:06.590Z,98921.00
2023-04-02T08:33:08.854Z,98917.25
2023-04-02T08:38:15.553Z,98924.03
2023-04-02T08:43:37.615Z,98938.44
2023-04-02T08:48:44.087Z,98928.16
2023-04-02T08:53:46.789Z,98925.66
2023-04-02T08:58:53.685Z,98912.75
2023-04-02T09:03:58.770Z,98931.16
2023-04-02T09:09:01.247Z,98922.56
2023-04-02T09:14:11.941Z,98930.97
2023-04-02T09:19:24.520Z,98923.81
2023-04-02T09:24:26.597Z,98912.31
2023-04-02T09:29:43.954Z,98923.53
2023-04-02T09:34:46.185Z,98925.66
2023-04-02T09:39:48.820Z,98922.22
2023-04-02T09:44:50.990Z,98944.69
2023-04-02T09:49:53.121Z,98931.25
2023-04-02T09:55:19.126Z,98944.84
2023-04-02T10:00:32.021Z,98933.28
2023-04-02T10:10:46.998Z,98946.00
2023-04-02T10:16:01.472Z,98926.00
2023-04-02T10:21:05.771Z,98940.06
2023-04-02T10:26:10.591Z,98945.69
2023-04-02T10:36:48.302Z,98951.44
2023-04-02T10:42:10.557Z,98927.47
2023-04-02T10:47:44.878Z,98945.88
2023-04-02T10:53:11.533Z,98936.13
2023-04-02T10:58:26.367Z,98931.34
2023-04-02T11:03:31.856Z,98918.66
2023-04-02T11:08:41.563Z,98885.72
2023-04-02T11:13:57.200Z,98926.84
2023-04-02T11:19:34.814Z,98932.00
2023-04-02T11:24:48.703Z,98914.25
2023-04-02T11:30:18.706Z,98923.94
2023-04-02T11:35:32.041Z,98917.72
2023-04-02T11:40:40.698Z,98929.22
2023-04-02T11:45:52.924Z,98938.25
2023-04-02T11:50:55.973Z,98935.28
2023-04-02T11:55:58.807Z,98922.09
2023-04-02T12:01:14.903Z,98932.59
2023-04-02T12:06:28.898Z,98940.19
2023-04-02T12:11:34.261Z,98941.00
2023-04-02T12:16:37.935Z,98934.44
2023-04-02T12:21:47.450Z,98942.41
2023-04-02T12:26:49.778Z,98935.84
2023-04-02T12:31:53.727Z,98932.38
2023-04-02T12:37:03.812Z,98935.25
2023-04-02T12:42:06.111Z,98935.66
2023-04-02T12:47:08.259Z,98933.63
2023-04-02T12:52:16.845Z,98923.41
2023-04-02T12:57:28.962Z,98935.06
2023-04-02T13:02:44.708Z,98935.88
2023-04-02T13:07:47.617Z,98941.41
2023-04-02T13:12:55.710Z,98943.44
2023-04-02T13:18:22.254Z,98941.78
2023-04-02T13:23:27.250Z,98932.78
2023-04-02T13:28:29.813Z,98939.09
2023-04-02T13:33:31.979Z,98938.72
2023-04-02T13:38:34.063Z,98927.63
2023-04-02T13:43:36.150Z,98937.69
2023-04-02T13:48:38.202Z,98939.75
2023-04-02T13:53:40.342Z,98939.34
2023-04-02T13:58:42.507Z,98938.94
2023-04-02T14:03:45.533Z,98947.34
2023-04-02T14:09:08.055Z,98946.31
2023-04-02T14:14:22.713Z,98944.47
2023-04-02T14:19:27.843Z,98940.41
2023-04-02T14:25:03.772Z,98934.66
2023-04-02T14:30:19.631Z,98933.22
2023-04-02T14:35:45.115Z,98938.75
2023-04-02T14:41:02.439Z,98933.22
2023-04-02T14:46:07.325Z,98926.06
2023-04-02T14:51:33.804Z,98921.97
2023-04-02T14:56:47.558Z,98921.97
2023-04-02T15:01:53.635Z,98930.31
2023-04-02T15:07:05.006Z,98898.22
2023-04-02T15:12:21.383Z,98931.97
2023-04-02T15:17:24.871Z,98924.19
2023-04-02T15:22:36.372Z,98927.25
2023-04-02T15:27:58.619Z,98929.91
2023-04-02T15:33:25.210Z,98930.94
2023-04-02T15:38:52.442Z,98935.84
2023-04-02T15:44:08.327Z,98946.28
2023-04-02T15:49:21.500Z,98940.75
2023-04-02T15:54:29.537Z,98936.22
2023-04-02T15:59:43.286Z,98945.41
2023-04-02T16:05:04.872Z,98944.22
2023-04-02T16:10:37.899Z,98949.16
2023-04-02T16:15:50.723Z,98951.38
2023-04-02T16:20:54.543Z,98961.75
2023-04-02T16:26:26.762Z,98964.91
2023-04-02T16:31:51.580Z,98972.91
2023-04-02T16:37:15.857Z,98975.94
2023-04-02T16:42:37.121Z,98951.78
2023-04-02T16:47:48.052Z,98991.28
2023-04-02T16:53:29.249Z,98989.69
2023-04-02T16:58:38.816Z,98994.34
2023-04-02T17:03:58.449Z,99007.66
2023-04-02T17:09:14.466Z,99006.56
2023-04-02T17:14:32.859Z,99003.72
2023-04-02T17:19:35.776Z,99003.84
2023-04-02T17:24:45.270Z,99009.81
2023-04-02T17:29:52.906Z,98984.09
2023-04-02T17:35:16.555Z,99017.31
2023-04-02T17:40:30.579Z,99013.88
2023-04-02T17:45:49.430Z,99011.63
2023-04-02T17:51:01.092Z,99020.81
2023-04-02T17:56:17.573Z,99026.34
2023-04-02T18:01:37.344Z,99021.63
2023-04-02T18:07:00.924Z,99028.84
2023-04-02T18:12:05.970Z,99022.63
2023-04-02T18:17:07.991Z,99033.44
2023-04-02T18:22:22.960Z,99034.88
2023-04-02T18:27:43.215Z,99033.28
2023-04-02T18:33:06.560Z,99035.44
2023-04-02T18:38:29.587Z,99041.34
2023-04-02T18:44:09.036Z,99035.59
2023-04-02T18:49:36.199Z,99048.84
2023-04-02T18:54:51.265Z,99056.78
2023-04-02T19:00:19.664Z,99054.59
2023-04-02T19:05:36.254Z,99060.34
2023-04-02T19:10:42.037Z,99055.97
2023-04-02T19:16:02.630Z,99064.44
2023-04-02T19:21:35.694Z,99056.13
2023-04-02T19:26:54.261Z,99053.88
2023-04-02T19:32:02.281Z,99050.22
2023-04-02T19:37:36.837Z,99050.84
2023-04-02T19:42:50.420Z,99052.50
2023-04-02T19:47:53.181Z,99055.06
2023-04-02T19:52:55.551Z,99059.94
2023-04-02T19:58:04.522Z,99047.44
2023-04-02T20:03:19.725Z,99060.47
2023-04-02T20:08:21.889Z,99062.72
2023-04-02T20:13:24.007Z,99065.00
2023-04-02T20:18:26.625Z,99069.91
2023-04-02T20:23:28.897Z,99069.06
2023-04-02T20:28:31.965Z,99057.22
2023-04-02T20:33:34.650Z,99079.13
2023-04-02T20:38:37.658Z,99079.31
2023-04-02T20:43:42.590Z,99085.03
2023-04-02T20:48:45.300Z,99053.84
2023-04-02T20:53:47.909Z,99078.88
2023-04-02T20:58:50.258Z,99074.75
2023-04-02T21:04:01.333Z,99078.06
2023-04-02T21:09:10.710Z,99072.72
2023-04-02T21:14:12.919Z,99068.53
2023-04-02T21:19:15.120Z,99079.53
2023-04-02T21:24:17.348Z,99085.69
2023-04-02T21:29:19.464Z,99071.56
2023-04-02T21:34:21.631Z,99062.66
2023-04-02T21:39:24.466Z,99084.66
2023-04-02T21:44:27.075Z,99085.50
2023-04-02T21:49:29.855Z,99087.13
2023-04-02T21:54:31.975Z,99093.47
2023-04-02T21:59:34.628Z,99084.31
2023-04-02T22:04:36.722Z,99099.88
2023-04-02T22:09:38.794Z,99090.69
2023-04-02T22:14:41.098Z,99085.28
2023-04-02T22:19:43.749Z,99092.19
2023-04-02T22:24:46.457Z,99102.56
2023-04-02T22:29:48.560Z,99089.66
2023-04-02T22:50:15.555Z,99102.47
2023-04-02T22:55:18.158Z,99092.41
2023-04-02T23:00:21.082Z,99101.19
2023-04-02T23:05:23.209Z,99097.34
2023-04-02T23:10:25.481Z,99094.94
2023-04-02T23:15:32.759Z,99097.38
2023-04-02T23:20:35.081Z,99098.84
2023-04-02T23:25:38.378Z,99097.44
2023-04-02T23:30:44.208Z,99101.41
2023-04-02T23:35:46.300Z,99106.03
2023-04-02T23:40:48.646Z,99112.63
2023-04-02T23:45:51.159Z,99108.06
2023-04-02T23:50:53.322Z,99111.06
2023-04-02T23:55:55.949Z,99113.31
